Bituruna, Brazil
Current Conditions -  °F | °C
As of 4:00 PM on Friday 31 Oct 2014 (Local Time) from SBCH Reporting Station
Scattered Clouds Scattered Clouds  
Wind Chill: 28°   Ceiling: Unl
Heat Index: 29°   Visibility: 6mi
Dew Point: 19°   Wind: 9mph
Humidity: 58%   Direction: 310°NW
Pressure: 29.91"   Gusts: NA
Location:  26.16°S, 51.55°W
Report Text: SBCH 311800Z 31008KT 9999 SCT020 28/19 Q1013
Loading
Personal Weather Stations






























Interactive Weather Map
Tropical Storm Tracking
New forecast layout! Learn more

10-Day Weather Forecast

Advertisements
Track Severe Weather on mobile